sensor_id;sensor_type;location;lat;lon;timestamp;pressure;altitude;pressure_sealevel;temperature;humidity
4012;BME280;2020;48.682;9.024;2023-02-12T00:01:19;98304.66;;;4.18;79.58
4012;BME280;2020;48.682;9.024;2023-02-12T00:03:45;98298.19;;;4.28;79.03
4012;BME280;2020;48.682;9.024;2023-02-12T00:06:10;98309.88;;;4.35;79.11
4012;BME280;2020;48.682;9.024;2023-02-12T00:08:36;98305.56;;;4.36;77.95
4012;BME280;2020;48.682;9.024;2023-02-12T00:11:13;98304.25;;;4.27;78.85
4012;BME280;2020;48.682;9.024;2023-02-12T00:13:40;98302.66;;;4.24;79.25
4012;BME280;2020;48.682;9.024;2023-02-12T00:16:11;98303.19;;;4.31;79.61
4012;BME280;2020;48.682;9.024;2023-02-12T00:18:37;98304.84;;;4.32;79.41
4012;BME280;2020;48.682;9.024;2023-02-12T00:21:03;98308.63;;;4.25;78.40
4012;BME280;2020;48.682;9.024;2023-02-12T00:23:28;98308.78;;;4.22;79.33
4012;BME280;2020;48.682;9.024;2023-02-12T00:25:53;98308.91;;;4.19;79.44
4012;BME280;2020;48.682;9.024;2023-02-12T00:28:19;98314.22;;;4.16;80.86
4012;BME280;2020;48.682;9.024;2023-02-12T00:30:44;98310.88;;;4.14;80.01
4012;BME280;2020;48.682;9.024;2023-02-12T00:33:09;98309.75;;;4.19;79.17
4012;BME280;2020;48.682;9.024;2023-02-12T00:35:35;98306.19;;;4.22;80.21
4012;BME280;2020;48.682;9.024;2023-02-12T00:38:00;98309.09;;;4.33;79.72
4012;BME280;2020;48.682;9.024;2023-02-12T00:40:25;98315.19;;;4.32;80.53
4012;BME280;2020;48.682;9.024;2023-02-12T00:42:51;98323.81;;;4.31;80.23
4012;BME280;2020;48.682;9.024;2023-02-12T00:45:16;98325.78;;;4.26;80.58
4012;BME280;2020;48.682;9.024;2023-02-12T00:47:41;98318.94;;;4.25;80.85
4012;BME280;2020;48.682;9.024;2023-02-12T00:50:07;98319.84;;;4.24;80.57
4012;BME280;2020;48.682;9.024;2023-02-12T00:52:32;98319.09;;;4.22;80.22
4012;BME280;2020;48.682;9.024;2023-02-12T00:54:58;98328.50;;;4.23;80.71
4012;BME280;2020;48.682;9.024;2023-02-12T00:57:23;98319.22;;;4.19;81.21
4012;BME280;2020;48.682;9.024;2023-02-12T00:59:49;98328.44;;;4.24;80.75
4012;BME280;2020;48.682;9.024;2023-02-12T01:02:14;98318.94;;;4.25;80.77
4012;BME280;2020;48.682;9.024;2023-02-12T01:04:39;98331.06;;;4.23;80.62
4012;BME280;2020;48.682;9.024;2023-02-12T01:07:04;98336.34;;;4.20;81.38
4012;BME280;2020;48.682;9.024;2023-02-12T01:09:30;98335.69;;;4.16;81.72
4012;BME280;2020;48.682;9.024;2023-02-12T01:11:55;98338.16;;;4.18;81.60
4012;BME280;2020;48.682;9.024;2023-02-12T01:14:20;98334.69;;;4.19;81.02
4012;BME280;2020;48.682;9.024;2023-02-12T01:16:46;98323.28;;;4.24;80.55
4012;BME280;2020;48.682;9.024;2023-02-12T01:19:11;98319.09;;;4.22;80.71
4012;BME280;2020;48.682;9.024;2023-02-12T01:21:37;98325.78;;;4.26;81.09
4012;BME280;2020;48.682;9.024;2023-02-12T01:24:02;98325.63;;;4.29;81.16
4012;BME280;2020;48.682;9.024;2023-02-12T01:26:29;98330.66;;;4.13;81.49
4012;BME280;2020;48.682;9.024;2023-02-12T01:29:00;98327.31;;;4.11;82.18
4012;BME280;2020;48.682;9.024;2023-02-12T01:31:28;98331.34;;;4.17;81.75
4012;BME280;2020;48.682;9.024;2023-02-12T01:33:55;98330.53;;;4.16;81.50
4012;BME280;2020;48.682;9.024;2023-02-12T01:36:21;98335.53;;;4.19;81.60
4012;BME280;2020;48.682;9.024;2023-02-12T01:38:48;98328.75;;;4.17;81.48
4012;BME280;2020;48.682;9.024;2023-02-12T01:41:22;98315.13;;;4.15;82.35
4012;BME280;2020;48.682;9.024;2023-02-12T01:44:12;98328.72;;;4.18;82.38
4012;BME280;2020;48.682;9.024;2023-02-12T01:46:38;98319.22;;;4.19;82.97
4012;BME280;2020;48.682;9.024;2023-02-12T01:49:06;98321.88;;;4.17;81.74
4012;BME280;2020;48.682;9.024;2023-02-12T01:51:33;98327.03;;;4.17;81.53
4012;BME280;2020;48.682;9.024;2023-02-12T01:54:02;98321.16;;;4.14;81.44
4012;BME280;2020;48.682;9.024;2023-02-12T01:56:29;98327.88;;;4.18;81.48
4012;BME280;2020;48.682;9.024;2023-02-12T01:58:55;98328.00;;;4.15;81.51
4012;BME280;2020;48.682;9.024;2023-02-12T02:01:24;98332.16;;;3.98;82.66
4012;BME280;2020;48.682;9.024;2023-02-12T02:03:53;98321.59;;;4.04;82.38
4012;BME280;2020;48.682;9.024;2023-02-12T02:06:25;98327.50;;;4.06;81.95
4012;BME280;2020;48.682;9.024;2023-02-12T02:08:52;98327.59;;;4.05;82.57
4012;BME280;2020;48.682;9.024;2023-02-12T02:11:18;98325.22;;;4.00;82.56
4012;BME280;2020;48.682;9.024;2023-02-12T02:14:02;98320.81;;;4.02;83.16
4012;BME280;2020;48.682;9.024;2023-02-12T02:16:53;98312.69;;;4.12;82.56
4012;BME280;2020;48.682;9.024;2023-02-12T02:30:33;98297.28;;;4.10;82.51
4012;BME280;2020;48.682;9.024;2023-02-12T02:33:20;98298.25;;;4.07;82.98
4012;BME280;2020;48.682;9.024;2023-02-12T02:35:54;98298.72;;;3.97;82.68
4012;BME280;2020;48.682;9.024;2023-02-12T02:38:43;98305.28;;;3.85;84.09
4012;BME280;2020;48.682;9.024;2023-02-12T02:41:17;98305.16;;;3.88;83.76
4012;BME280;2020;48.682;9.024;2023-02-12T02:43:49;98297.91;;;3.96;82.88
4012;BME280;2020;48.682;9.024;2023-02-12T02:46:33;98299.28;;;3.84;83.89
4012;BME280;2020;48.682;9.024;2023-02-12T02:49:05;98293.31;;;3.84;84.63
4012;BME280;2020;48.682;9.024;2023-02-12T02:51:39;98300.25;;;3.82;83.41
4012;BME280;2020;48.682;9.024;2023-02-12T02:54:09;98297.47;;;3.86;84.03
4012;BME280;2020;48.682;9.024;2023-02-12T02:56:38;98291.34;;;3.89;84.04
4012;BME280;2020;48.682;9.024;2023-02-12T02:59:10;98288.84;;;3.87;84.64
4012;BME280;2020;48.682;9.024;2023-02-12T03:01:42;98287.88;;;3.90;84.20
4012;BME280;2020;48.682;9.024;2023-02-12T03:04:13;98288.91;;;3.86;84.63
4012;BME280;2020;48.682;9.024;2023-02-12T03:09:47;98289.56;;;3.91;83.68
4012;BME280;2020;48.682;9.024;2023-02-12T03:12:21;98289.69;;;3.88;83.92
4012;BME280;2020;48.682;9.024;2023-02-12T03:14:53;98288.00;;;3.87;84.04
4012;BME280;2020;48.682;9.024;2023-02-12T03:17:30;98296.66;;;3.86;84.72
4012;BME280;2020;48.682;9.024;2023-02-12T03:20:02;98297.56;;;3.85;84.43
4012;BME280;2020;48.682;9.024;2023-02-12T03:22:35;98294.84;;;3.88;83.76
4012;BME280;2020;48.682;9.024;2023-02-12T03:25:03;98300.53;;;3.75;84.73
4012;BME280;2020;48.682;9.024;2023-02-12T03:27:37;98302.06;;;3.79;84.91
4012;BME280;2020;48.682;9.024;2023-02-12T03:30:04;98293.44;;;3.80;84.78
4012;BME280;2020;48.682;9.024;2023-02-12T03:32:36;98300.25;;;3.82;84.67
4012;BME280;2020;48.682;9.024;2023-02-12T03:35:09;98302.06;;;3.79;84.69
4012;BME280;2020;48.682;9.024;2023-02-12T03:37:45;98304.28;;;3.68;85.00
4012;BME280;2020;48.682;9.024;2023-02-12T03:40:36;98297.47;;;3.67;84.96
4012;BME280;2020;48.682;9.024;2023-02-12T03:43:17;98304.00;;;3.74;85.34
4012;BME280;2020;48.682;9.024;2023-02-12T03:46:16;98300.66;;;3.72;84.87
4012;BME280;2020;48.682;9.024;2023-02-12T03:48:49;98304.16;;;3.71;85.26
4012;BME280;2020;48.682;9.024;2023-02-12T03:51:27;98305.28;;;3.85;84.48
4012;BME280;2020;48.682;9.024;2023-02-12T03:53:55;98299.00;;;3.71;85.02
4012;BME280;2020;48.682;9.024;2023-02-12T03:56:25;98302.63;;;3.67;85.65
4012;BME280;2020;48.682;9.024;2023-02-12T03:58:51;98304.16;;;3.71;85.94
4012;BME280;2020;48.682;9.024;2023-02-12T04:01:16;98300.66;;;3.72;85.68
4012;BME280;2020;48.682;9.024;2023-02-12T04:03:42;98309.22;;;3.73;85.37
4012;BME280;2020;48.682;9.024;2023-02-12T04:06:26;98309.31;;;3.71;85.90
4012;BME280;2020;48.682;9.024;2023-02-12T04:08:54;98310.84;;;3.75;85.09
4012;BME280;2020;48.682;9.024;2023-02-12T04:14:25;98314.31;;;3.74;84.93
4012;BME280;2020;48.682;9.024;2023-02-12T04:17:02;98314.59;;;3.68;85.55
4012;BME280;2020;48.682;9.024;2023-02-12T04:19:40;98305.81;;;3.72;86.23
4012;BME280;2020;48.682;9.024;2023-02-12T04:25:24;98313.53;;;3.72;85.35
4012;BME280;2020;48.682;9.024;2023-02-12T04:31:12;98320.56;;;3.69;85.95
4012;BME280;2020;48.682;9.024;2023-02-12T04:33:47;98319.78;;;3.66;86.38
4012;BME280;2020;48.682;9.024;2023-02-12T04:36:27;98327.13;;;3.76;85.69
4012;BME280;2020;48.682;9.024;2023-02-12T04:39:02;98329.91;;;3.71;85.44
4012;BME280;2020;48.682;9.024;2023-02-12T04:41:29;98329.06;;;3.71;85.81
4012;BME280;2020;48.682;9.024;2023-02-12T04:43:54;98328.41;;;3.65;86.14
4012;BME280;2020;48.682;9.024;2023-02-12T04:46:20;98329.59;;;3.58;86.69
4012;BME280;2020;48.682;9.024;2023-02-12T04:48:51;98327.22;;;3.54;87.53
4012;BME280;2020;48.682;9.024;2023-02-12T04:51:17;98332.50;;;3.50;88.23
4012;BME280;2020;48.682;9.024;2023-02-12T04:53:42;98330.44;;;3.59;87.45
4012;BME280;2020;48.682;9.024;2023-02-12T04:56:10;98333.06;;;3.57;87.64
4012;BME280;2020;48.682;9.024;2023-02-12T04:58:37;98326.25;;;3.56;87.62
4012;BME280;2020;48.682;9.024;2023-02-12T05:01:02;98338.94;;;3.61;87.11
4012;BME280;2020;48.682;9.024;2023-02-12T05:03:27;98337.25;;;3.60;87.66
4012;BME280;2020;48.682;9.024;2023-02-12T05:05:53;98340.16;;;3.52;87.67
4012;BME280;2020;48.682;9.024;2023-02-12T05:08:18;98332.38;;;3.54;87.99
4012;BME280;2020;48.682;9.024;2023-02-12T05:10:43;98334.22;;;3.50;88.48
4012;BME280;2020;48.682;9.024;2023-02-12T05:13:09;98327.34;;;3.50;87.96
4012;BME280;2020;48.682;9.024;2023-02-12T05:15:37;98327.63;;;3.44;88.44
4012;BME280;2020;48.682;9.024;2023-02-12T05:18:02;98336.25;;;3.43;89.20
4012;BME280;2020;48.682;9.024;2023-02-12T05:20:28;98329.41;;;3.42;89.50
4012;BME280;2020;48.682;9.024;2023-02-12T05:22:53;98325.94;;;3.43;89.43
4012;BME280;2020;48.682;9.024;2023-02-12T05:25:18;98327.63;;;3.44;89.77
4012;BME280;2020;48.682;9.024;2023-02-12T05:27:44;98321.75;;;3.41;90.48
4012;BME280;2020;48.682;9.024;2023-02-12T05:30:09;98326.06;;;3.40;90.75
4012;BME280;2020;48.682;9.024;2023-02-12T05:32:35;98331.34;;;3.37;91.23
4012;BME280;2020;48.682;9.024;2023-02-12T05:35:00;98329.81;;;3.33;91.77
4012;BME280;2020;48.682;9.024;2023-02-12T05:37:25;98339.25;;;3.32;92.57
4012;BME280;2020;48.682;9.024;2023-02-12T05:39:51;98340.31;;;3.27;93.54
4012;BME280;2020;48.682;9.024;2023-02-12T05:42:16;98330.16;;;3.24;93.86
4012;BME280;2020;48.682;9.024;2023-02-12T05:44:41;98327.72;;;3.20;94.20
4012;BME280;2020;48.682;9.024;2023-02-12T05:47:07;98336.28;;;3.21;94.28
4012;BME280;2020;48.682;9.024;2023-02-12T05:49:32;98331.81;;;3.25;94.55
4012;BME280;2020;48.682;9.024;2023-02-12T05:51:57;98325.00;;;3.24;94.65
4012;BME280;2020;48.682;9.024;2023-02-12T05:54:22;98327.44;;;3.27;94.33
4012;BME280;2020;48.682;9.024;2023-02-12T05:56:48;98321.63;;;3.23;94.58
4012;BME280;2020;48.682;9.024;2023-02-12T05:59:16;98330.03;;;3.27;94.04
4012;BME280;2020;48.682;9.024;2023-02-12T06:01:43;98331.56;;;3.31;93.98
4012;BME280;2020;48.682;9.024;2023-02-12T06:04:15;98329.81;;;3.33;93.75
4012;BME280;2020;48.682;9.024;2023-02-12T06:06:42;98326.44;;;3.31;93.99
4012;BME280;2020;48.682;9.024;2023-02-12T06:09:11;98320.31;;;3.33;93.53
4012;BME280;2020;48.682;9.024;2023-02-12T06:11:37;98329.81;;;3.33;93.78
4012;BME280;2020;48.682;9.024;2023-02-12T06:14:07;98331.56;;;3.31;94.67
4012;BME280;2020;48.682;9.024;2023-02-12T06:16:33;98329.81;;;3.33;94.51
4012;BME280;2020;48.682;9.024;2023-02-12T06:19:00;98327.88;;;3.38;94.31
4012;BME280;2020;48.682;9.024;2023-02-12T06:21:26;98328.56;;;3.42;94.93
4012;BME280;2020;48.682;9.024;2023-02-12T06:23:52;98326.84;;;3.42;94.63
4012;BME280;2020;48.682;9.024;2023-02-12T06:26:17;98326.75;;;3.44;94.31
4012;BME280;2020;48.682;9.024;2023-02-12T06:28:43;98325.94;;;3.43;94.13
4012;BME280;2020;48.682;9.024;2023-02-12T06:33:48;98334.56;;;3.42;94.27
4012;BME280;2020;48.682;9.024;2023-02-12T06:36:13;98324.41;;;3.39;94.08
4012;BME280;2020;48.682;9.024;2023-02-12T06:38:40;98335.50;;;3.40;92.92
4012;BME280;2020;48.682;9.024;2023-02-12T06:41:05;98333.84;;;3.39;93.19
4012;BME280;2020;48.682;9.024;2023-02-12T06:43:31;98334.94;;;3.33;92.72
4012;BME280;2020;48.682;9.024;2023-02-12T06:45:59;98350.31;;;3.34;93.99
4012;BME280;2020;48.682;9.024;2023-02-12T06:48:25;98351.38;;;3.29;93.73
4012;BME280;2020;48.682;9.024;2023-02-12T06:50:50;98350.75;;;3.24;94.26
4012;BME280;2020;48.682;9.024;2023-02-12T06:53:15;98352.41;;;3.25;95.00
4012;BME280;2020;48.682;9.024;2023-02-12T06:55:41;98348.13;;;3.25;94.80
4012;BME280;2020;48.682;9.024;2023-02-12T06:58:06;98353.97;;;3.29;94.63
4012;BME280;2020;48.682;9.024;2023-02-12T07:00:31;98352.53;;;3.21;95.04
4012;BME280;2020;48.682;9.024;2023-02-12T07:02:56;98353.56;;;3.17;94.99
4012;BME280;2020;48.682;9.024;2023-02-12T07:05:23;98358.06;;;3.12;95.20
4012;BME280;2020;48.682;9.024;2023-02-12T07:07:48;98352.16;;;3.10;95.02
4012;BME280;2020;48.682;9.024;2023-02-12T07:10:14;98356.41;;;3.11;95.61
4012;BME280;2020;48.682;9.024;2023-02-12T07:12:39;98366.69;;;3.11;95.03
4012;BME280;2020;48.682;9.024;2023-02-12T07:15:04;98361.03;;;3.24;94.74
4012;BME280;2020;48.682;9.024;2023-02-12T07:17:29;98364.16;;;3.32;93.70
4012;BME280;2020;48.682;9.024;2023-02-12T07:19:55;98366.66;;;3.33;93.48
4012;BME280;2020;48.682;9.024;2023-02-12T07:22:20;98358.69;;;3.40;93.18
4012;BME280;2020;48.682;9.024;2023-02-12T07:24:46;98360.44;;;3.39;93.14
4012;BME280;2020;48.682;9.024;2023-02-12T07:27:11;98362.81;;;3.44;92.77
4012;BME280;2020;48.682;9.024;2023-02-12T07:29:37;98370.59;;;3.42;92.39
4012;BME280;2020;48.682;9.024;2023-02-12T07:32:02;98368.53;;;3.50;92.82
4012;BME280;2020;48.682;9.024;2023-02-12T07:34:27;98373.22;;;3.41;93.75
4012;BME280;2020;48.682;9.024;2023-02-12T07:36:52;98374.22;;;3.38;93.34
4012;BME280;2020;48.682;9.024;2023-02-12T07:39:18;98365.84;;;3.33;94.42
4012;BME280;2020;48.682;9.024;2023-02-12T07:41:43;98366.63;;;3.35;94.45
4012;BME280;2020;48.682;9.024;2023-02-12T07:44:10;98372.53;;;3.37;94.40
4012;BME280;2020;48.682;9.024;2023-02-12T07:46:39;98366.22;;;3.44;94.09
4012;BME280;2020;48.682;9.024;2023-02-12T07:49:06;98369.44;;;3.49;94.09
4012;BME280;2020;48.682;9.024;2023-02-12T07:51:35;98366.41;;;3.40;95.24
4012;BME280;2020;48.682;9.024;2023-02-12T07:54:01;98374.78;;;3.45;94.98
4012;BME280;2020;48.682;9.024;2023-02-12T07:56:29;98369.63;;;3.45;95.19
4012;BME280;2020;48.682;9.024;2023-02-12T07:58:58;98370.47;;;3.45;95.50
4012;BME280;2020;48.682;9.024;2023-02-12T08:01:25;98368.69;;;3.47;95.78
4012;BME280;2020;48.682;9.024;2023-02-12T08:03:52;98366.63;;;3.56;95.64
4012;BME280;2020;48.682;9.024;2023-02-12T08:06:20;98366.47;;;3.59;95.45
4012;BME280;2020;48.682;9.024;2023-02-12T08:08:47;98366.34;;;3.62;95.87
4012;BME280;2020;48.682;9.024;2023-02-12T08:11:16;98367.19;;;3.62;95.64
4012;BME280;2020;48.682;9.024;2023-02-12T08:13:42;98365.50;;;3.61;95.96
4012;BME280;2020;48.682;9.024;2023-02-12T08:16:11;98360.22;;;3.64;95.83
4012;BME280;2020;48.682;9.024;2023-02-12T08:18:37;98364.41;;;3.67;95.54
4012;BME280;2020;48.682;9.024;2023-02-12T08:21:06;98359.00;;;3.73;94.98
4012;BME280;2020;48.682;9.024;2023-02-12T08:23:32;98358.88;;;3.76;94.46
4012;BME280;2020;48.682;9.024;2023-02-12T08:26:18;98358.53;;;3.63;94.66
4012;BME280;2020;48.682;9.024;2023-02-12T08:28:46;98354.13;;;3.67;93.95
4012;BME280;2020;48.682;9.024;2023-02-12T08:31:15;98359.00;;;3.73;94.16
4012;BME280;2020;48.682;9.024;2023-02-12T08:33:40;98358.00;;;3.57;93.34
4012;BME280;2020;48.682;9.024;2023-02-12T08:36:11;98354.13;;;3.67;93.14
4012;BME280;2020;48.682;9.024;2023-02-12T08:38:37;98357.47;;;3.69;93.64
4012;BME280;2020;48.682;9.024;2023-02-12T08:41:05;98358.03;;;3.76;92.83
4012;BME280;2020;48.682;9.024;2023-02-12T08:43:31;98359.66;;;3.58;92.59
4012;BME280;2020;48.682;9.024;2023-02-12T08:46:22;98357.59;;;3.66;92.86
4012;BME280;2020;48.682;9.024;2023-02-12T08:48:46;98362.28;;;3.56;92.58
4012;BME280;2020;48.682;9.024;2023-02-12T08:51:15;98362.22;;;3.58;92.72
4012;BME280;2020;48.682;9.024;2023-02-12T08:53:42;98354.66;;;3.55;93.32
4012;BME280;2020;48.682;9.024;2023-02-12T08:56:09;98359.41;;;3.64;93.29
4012;BME280;2020;48.682;9.024;2023-02-12T08:58:35;98361.06;;;3.65;92.62
4012;BME280;2020;48.682;9.024;2023-02-12T09:01:01;98365.97;;;3.71;92.42
4012;BME280;2020;48.682;9.024;2023-02-12T09:03:26;98367.94;;;3.85;92.09
4012;BME280;2020;48.682;9.024;2023-02-12T09:05:52;98366.72;;;3.94;91.66
4012;BME280;2020;48.682;9.024;2023-02-12T09:08:17;98361.41;;;3.97;90.27
4012;BME280;2020;48.682;9.024;2023-02-12T09:10:43;98356.97;;;4.01;90.51
4012;BME280;2020;48.682;9.024;2023-02-12T09:13:10;98356.28;;;4.16;90.75
4012;BME280;2020;48.682;9.024;2023-02-12T09:15:36;98363.53;;;4.27;89.58
4012;BME280;2020;48.682;9.024;2023-02-12T09:18:02;98362.34;;;4.34;89.95
4012;BME280;2020;48.682;9.024;2023-02-12T09:20:28;98352.66;;;4.39;89.88
4012;BME280;2020;48.682;9.024;2023-02-12T09:22:54;98368.97;;;4.40;88.69
4012;BME280;2020;48.682;9.024;2023-02-12T09:25:19;98358.53;;;4.43;88.40
4012;BME280;2020;48.682;9.024;2023-02-12T09:27:44;98366.59;;;4.54;88.92
4012;BME280;2020;48.682;9.024;2023-02-12T09:30:10;98369.25;;;4.53;88.07
4012;BME280;2020;48.682;9.024;2023-02-12T09:32:35;98363.03;;;4.57;87.39
4012;BME280;2020;48.682;9.024;2023-02-12T09:35:01;98365.47;;;4.60;87.35
4012;BME280;2020;48.682;9.024;2023-02-12T09:37:26;98369.53;;;4.66;87.52
4012;BME280;2020;48.682;9.024;2023-02-12T09:39:51;98372.53;;;4.76;87.51
4012;BME280;2020;48.682;9.024;2023-02-12T09:45:19;98365.88;;;4.70;86.54
4012;BME280;2020;48.682;9.024;2023-02-12T09:53:05;98379.13;;;4.81;86.94
4012;BME280;2020;48.682;9.024;2023-02-12T09:55:32;98381.78;;;4.80;86.45
4012;BME280;2020;48.682;9.024;2023-02-12T09:58:01;98369.78;;;4.79;86.65
4012;BME280;2020;48.682;9.024;2023-02-12T10:00:29;98369.94;;;4.76;86.32
4012;BME280;2020;48.682;9.024;2023-02-12T10:02:57;98370.22;;;4.70;86.37
4012;BME280;2020;48.682;9.024;2023-02-12T10:05:28;98373.28;;;4.78;86.41
4012;BME280;2020;48.682;9.024;2023-02-12T10:08:13;98373.28;;;4.78;87.12
4012;BME280;2020;48.682;9.024;2023-02-12T10:11:04;98372.66;;;4.73;86.11
4012;BME280;2020;48.682;9.024;2023-02-12T10:16:55;98371.03;;;4.89;85.92
4012;BME280;2020;48.682;9.024;2023-02-12T10:22:39;98374.09;;;4.97;86.91
4012;BME280;2020;48.682;9.024;2023-02-12T10:25:14;98372.63;;;5.09;85.47
4012;BME280;2020;48.682;9.024;2023-02-12T10:27:53;98360.91;;;5.21;86.05
4012;BME280;2020;48.682;9.024;2023-02-12T10:30:43;98369.41;;;5.23;84.22
4012;BME280;2020;48.682;9.024;2023-02-12T10:33:23;98367.59;;;5.25;85.41
4012;BME280;2020;48.682;9.024;2023-02-12T10:35:54;98359.69;;;5.11;84.40
4012;BME280;2020;48.682;9.024;2023-02-12T10:38:25;98364.69;;;5.14;85.13
4012;BME280;2020;48.682;9.024;2023-02-12T10:40:52;98356.66;;;5.20;84.73
4012;BME280;2020;48.682;9.024;2023-02-12T10:43:21;98356.94;;;5.32;84.30
4012;BME280;2020;48.682;9.024;2023-02-12T10:45:47;98359.53;;;5.32;84.91
4012;BME280;2020;48.682;9.024;2023-02-12T10:48:18;98360.13;;;5.37;84.77
4012;BME280;2020;48.682;9.024;2023-02-12T10:50:54;98353.75;;;5.26;84.25
4012;BME280;2020;48.682;9.024;2023-02-12T10:53:24;98350.56;;;5.21;84.80
4012;BME280;2020;48.682;9.024;2023-02-12T11:01:27;98345.09;;;5.27;83.05
4012;BME280;2020;48.682;9.024;2023-02-12T11:03:54;98346.78;;;5.29;84.05
4012;BME280;2020;48.682;9.024;2023-02-12T11:06:23;98348.00;;;5.39;83.72
4012;BME280;2020;48.682;9.024;2023-02-12T11:08:50;98349.66;;;5.40;84.01
4012;BME280;2020;48.682;9.024;2023-02-12T11:11:22;98342.97;;;5.36;84.16
4012;BME280;2020;48.682;9.024;2023-02-12T11:14:03;98348.00;;;5.39;84.26
4012;BME280;2020;48.682;9.024;2023-02-12T11:16:36;98336.84;;;5.38;85.01
4012;BME280;2020;48.682;9.024;2023-02-12T11:19:27;98347.53;;;5.48;84.79
4012;BME280;2020;48.682;9.024;2023-02-12T11:22:11;98345.38;;;5.56;84.17
4012;BME280;2020;48.682;9.024;2023-02-12T11:24:44;98343.41;;;5.62;84.19
4012;BME280;2020;48.682;9.024;2023-02-12T11:29:39;98341.09;;;5.73;83.24
4012;BME280;2020;48.682;9.024;2023-02-12T11:32:06;98335.06;;;5.56;84.15
4012;BME280;2020;48.682;9.024;2023-02-12T11:34:36;98340.38;;;5.53;84.52
4012;BME280;2020;48.682;9.024;2023-02-12T11:37:02;98332.59;;;5.71;85.61
4012;BME280;2020;48.682;9.024;2023-02-12T11:39:30;98337.31;;;5.63;83.75
4012;BME280;2020;48.682;9.024;2023-02-12T11:42:04;98343.25;;;5.65;84.31
4012;BME280;2020;48.682;9.024;2023-02-12T11:44:39;98340.53;;;5.50;84.10
4012;BME280;2020;48.682;9.024;2023-02-12T11:47:16;98337.34;;;5.45;84.75
4012;BME280;2020;48.682;9.024;2023-02-12T11:52:30;98338.41;;;5.41;84.70
4012;BME280;2020;48.682;9.024;2023-02-12T11:55:00;98323.31;;;5.33;86.04
4012;BME280;2020;48.682;9.024;2023-02-12T12:00:15;98331.13;;;5.32;86.00
4012;BME280;2020;48.682;9.024;2023-02-12T12:05:37;98334.22;;;5.21;86.70
4012;BME280;2020;48.682;9.024;2023-02-12T12:08:13;98329.31;;;5.16;87.41
4012;BME280;2020;48.682;9.024;2023-02-12T12:11:04;98326.88;;;5.31;86.64
4012;BME280;2020;48.682;9.024;2023-02-12T12:13:39;98325.97;;;5.32;87.42
4012;BME280;2020;48.682;9.024;2023-02-12T12:16:13;98323.53;;;5.46;86.80
4012;BME280;2020;48.682;9.024;2023-02-12T12:19:04;98322.91;;;5.59;86.35
4012;BME280;2020;48.682;9.024;2023-02-12T12:22:02;98320.75;;;5.67;85.80
4012;BME280;2020;48.682;9.024;2023-02-12T12:24:39;98316.69;;;5.45;86.24
4012;BME280;2020;48.682;9.024;2023-02-12T12:27:18;98312.69;;;5.39;87.19
4012;BME280;2020;48.682;9.024;2023-02-12T12:30:19;98312.53;;;5.43;87.42
4012;BME280;2020;48.682;9.024;2023-02-12T12:32:46;98307.09;;;5.65;86.96
4012;BME280;2020;48.682;9.024;2023-02-12T12:35:17;98310.41;;;5.67;86.71
4012;BME280;2020;48.682;9.024;2023-02-12T12:38:01;98319.09;;;5.66;86.13
4012;BME280;2020;48.682;9.024;2023-02-12T12:40:46;98312.56;;;5.59;85.85
4012;BME280;2020;48.682;9.024;2023-02-12T12:43:29;98309.22;;;5.56;86.18
4012;BME280;2020;48.682;9.024;2023-02-12T12:51:41;98292.22;;;5.52;86.56
4012;BME280;2020;48.682;9.024;2023-02-12T12:57:12;98294.72;;;5.88;86.76
4012;BME280;2020;48.682;9.024;2023-02-12T13:00:02;98289.28;;;6.10;85.87
4012;BME280;2020;48.682;9.024;2023-02-12T13:02:58;98289.84;;;6.15;84.55
4012;BME280;2020;48.682;9.024;2023-02-12T13:13:52;98273.19;;;6.21;84.20
4012;BME280;2020;48.682;9.024;2023-02-12T13:16:32;98281.53;;;6.26;84.32
4012;BME280;2020;48.682;9.024;2023-02-12T13:19:12;98274.69;;;6.25;85.64
4012;BME280;2020;48.682;9.024;2023-02-12T13:24:38;98278.34;;;6.53;82.79
4012;BME280;2020;48.682;9.024;2023-02-12T13:27:16;98274.31;;;6.63;82.27
4012;BME280;2020;48.682;9.024;2023-02-12T13:29:48;98268.47;;;6.59;81.98
4012;BME280;2020;48.682;9.024;2023-02-12T13:32:23;98263.84;;;6.34;83.03
4012;BME280;2020;48.682;9.024;2023-02-12T13:34:52;98268.03;;;6.21;84.08
4012;BME280;2020;48.682;9.024;2023-02-12T13:37:20;98269.69;;;6.22;84.43
4012;BME280;2020;48.682;9.024;2023-02-12T13:39:49;98265.19;;;6.41;83.90
4012;BME280;2020;48.682;9.024;2023-02-12T13:50:39;98259.84;;;7.06;79.06
4012;BME280;2020;48.682;9.024;2023-02-12T13:55:53;98252.88;;;7.37;77.50
4012;BME280;2020;48.682;9.024;2023-02-12T14:03:31;98246.41;;;7.58;75.92
4012;BME280;2020;48.682;9.024;2023-02-12T14:06:13;98243.78;;;8.02;74.66
4012;BME280;2020;48.682;9.024;2023-02-12T14:09:09;98243.63;;;8.32;73.02
4012;BME280;2020;48.682;9.024;2023-02-12T14:11:46;98242.41;;;8.66;71.71
4012;BME280;2020;48.682;9.024;2023-02-12T14:14:24;98237.25;;;8.24;72.58
4012;BME280;2020;48.682;9.024;2023-02-12T14:16:50;98236.34;;;8.10;73.41
4012;BME280;2020;48.682;9.024;2023-02-12T14:19:35;98233.44;;;8.57;71.65
4012;BME280;2020;48.682;9.024;2023-02-12T14:22:02;98237.53;;;8.46;72.52
4012;BME280;2020;48.682;9.024;2023-02-12T14:27:16;98223.16;;;8.83;70.97
4012;BME280;2020;48.682;9.024;2023-02-12T14:37:53;98212.31;;;8.63;71.08
4012;BME280;2020;48.682;9.024;2023-02-12T14:43:01;98213.41;;;8.99;70.05
4012;BME280;2020;48.682;9.024;2023-02-12T14:45:34;98210.72;;;9.14;69.83
4012;BME280;2020;48.682;9.024;2023-02-12T14:48:01;98214.63;;;9.19;68.53
4012;BME280;2020;48.682;9.024;2023-02-12T14:50:41;98212.78;;;9.34;68.47
4012;BME280;2020;48.682;9.024;2023-02-12T14:53:26;98214.34;;;8.58;70.04
4012;BME280;2020;48.682;9.024;2023-02-12T14:55:54;98214.34;;;8.58;70.52
4012;BME280;2020;48.682;9.024;2023-02-12T14:58:22;98208.78;;;8.64;70.26
4012;BME280;2020;48.682;9.024;2023-02-12T15:00:52;98207.16;;;8.89;69.97
4012;BME280;2020;48.682;9.024;2023-02-12T15:03:22;98209.47;;;9.06;69.59
4012;BME280;2020;48.682;9.024;2023-02-12T15:05:55;98215.50;;;9.20;68.40
4012;BME280;2020;48.682;9.024;2023-02-12T15:08:34;98212.06;;;9.45;67.51
4012;BME280;2020;48.682;9.024;2023-02-12T15:11:15;98218.59;;;9.51;66.86
4012;BME280;2020;48.682;9.024;2023-02-12T15:19:06;98213.66;;;8.69;69.17
4012;BME280;2020;48.682;9.024;2023-02-12T15:21:39;98208.94;;;8.61;69.73
4012;BME280;2020;48.682;9.024;2023-02-12T15:24:12;98208.22;;;8.99;69.15
4012;BME280;2020;48.682;9.024;2023-02-12T15:26:49;98206.13;;;9.30;67.69
4012;BME280;2020;48.682;9.024;2023-02-12T15:29:25;98205.91;;;9.59;66.48
4012;BME280;2020;48.682;9.024;2023-02-12T15:31:54;98199.59;;;9.88;64.92
4012;BME280;2020;48.682;9.024;2023-02-12T15:34:25;98200.41;;;9.88;64.54
4012;BME280;2020;48.682;9.024;2023-02-12T15:36:54;98199.41;;;9.78;65.37
4012;BME280;2020;48.682;9.024;2023-02-12T15:39:21;98197.06;;;9.99;64.25
4012;BME280;2020;48.682;9.024;2023-02-12T15:41:47;98201.94;;;10.28;62.97